createdAt,value
2019-05-23T00:02:32.858Z,9.90
2019-05-23T00:05:12.500Z,9.90
2019-05-23T00:07:44.014Z,9.90
2019-05-23T00:10:20.202Z,9.90
2019-05-23T00:13:01.115Z,9.90
2019-05-23T00:15:35.653Z,9.90
2019-05-23T00:18:06.360Z,9.90
2019-05-23T00:20:42.868Z,9.90
2019-05-23T00:23:15.457Z,9.80
2019-05-23T00:25:45.381Z,9.80
2019-05-23T00:28:17.316Z,9.70
2019-05-23T00:30:57.621Z,9.70
2019-05-23T00:33:28.837Z,9.70
2019-05-23T00:35:59.372Z,9.60
2019-05-23T00:38:30.199Z,9.60
2019-05-23T00:41:00.351Z,9.60
2019-05-23T00:43:31.570Z,9.70
2019-05-23T00:46:02.584Z,9.70
2019-05-23T00:48:33.870Z,9.70
2019-05-23T00:51:05.242Z,9.70
2019-05-23T00:53:38.912Z,9.70
2019-05-23T00:56:09.779Z,9.60
2019-05-23T00:58:41.485Z,9.60
2019-05-23T01:01:13.439Z,9.70
2019-05-23T01:03:44.389Z,9.80
2019-05-23T01:06:16.035Z,9.80
2019-05-23T01:08:46.525Z,9.80
2019-05-23T01:11:17.436Z,9.80
2019-05-23T01:13:47.328Z,9.80
2019-05-23T01:16:18.872Z,9.80
2019-05-23T01:18:48.473Z,9.80
2019-05-23T01:21:38.905Z,9.80
2019-05-23T01:24:32.583Z,9.90
2019-05-23T01:27:02.421Z,10.00
2019-05-23T01:29:40.221Z,9.90
2019-05-23T01:32:16.100Z,10.00
2019-05-23T01:34:46.858Z,10.00
2019-05-23T01:37:18.566Z,10.00
2019-05-23T01:39:50.149Z,10.00
2019-05-23T01:42:20.535Z,10.00
2019-05-23T01:44:50.229Z,9.90
2019-05-23T01:47:20.949Z,9.90
2019-05-23T01:49:51.788Z,9.90
2019-05-23T01:52:24.461Z,9.80
2019-05-23T01:54:54.324Z,9.70
2019-05-23T01:57:24.564Z,9.70
2019-05-23T02:00:08.923Z,9.60
2019-05-23T02:02:27.282Z,9.70
2019-05-23T02:05:02.548Z,9.60
2019-05-23T02:07:42.072Z,9.70
2019-05-23T02:10:13.097Z,9.70
2019-05-23T02:12:49.162Z,9.60
2019-05-23T02:15:19.441Z,9.60
2019-05-23T02:17:54.119Z,9.60
2019-05-23T02:20:25.149Z,9.50
2019-05-23T02:22:56.210Z,9.50
2019-05-23T02:25:26.411Z,9.60
2019-05-23T02:27:56.869Z,9.60
2019-05-23T02:30:34.535Z,9.60
2019-05-23T02:33:06.539Z,9.60
2019-05-23T02:35:37.000Z,9.60
2019-05-23T02:38:28.752Z,9.60
2019-05-23T02:41:17.414Z,9.60
2019-05-23T02:43:53.554Z,9.60
2019-05-23T02:46:30.494Z,9.50
2019-05-23T02:49:04.234Z,9.50
2019-05-23T02:51:37.079Z,9.60
2019-05-23T02:54:11.234Z,9.60
2019-05-23T02:56:41.885Z,9.60
2019-05-23T02:59:32.206Z,9.60
2019-05-23T03:02:44.037Z,9.60
2019-05-23T03:05:15.260Z,9.60
2019-05-23T03:07:45.144Z,9.60
2019-05-23T03:10:20.081Z,9.60
2019-05-23T03:12:51.851Z,9.60
2019-05-23T03:15:24.897Z,9.60
2019-05-23T03:18:04.108Z,9.60
2019-05-23T03:20:36.553Z,9.50
2019-05-23T03:23:12.220Z,9.50
2019-05-23T03:26:20.113Z,9.60
2019-05-23T03:28:51.217Z,9.50
2019-05-23T03:31:33.403Z,9.50
2019-05-23T03:34:04.190Z,9.50
2019-05-23T03:36:33.561Z,9.50
2019-05-23T03:39:04.164Z,9.50
2019-05-23T03:41:40.461Z,9.40
2019-05-23T03:44:14.196Z,9.40
2019-05-23T03:46:50.000Z,9.50
2019-05-23T03:49:21.480Z,9.40
2019-05-23T03:51:56.986Z,9.40
2019-05-23T03:54:27.728Z,9.10
2019-05-23T03:56:57.183Z,9.10
2019-05-23T03:59:31.022Z,9.10
2019-05-23T04:02:02.262Z,9.10
2019-05-23T04:04:32.201Z,9.20
2019-05-23T04:07:03.001Z,9.10
2019-05-23T04:09:34.821Z,9.10
2019-05-23T04:12:07.015Z,9.00
2019-05-23T04:14:42.768Z,9.00
2019-05-23T04:17:13.291Z,9.10
2019-05-23T04:19:43.185Z,9.00
2019-05-23T04:22:12.560Z,9.20
2019-05-23T04:24:43.431Z,9.30
2019-05-23T04:27:17.390Z,9.40
2019-05-23T04:29:49.245Z,9.60
2019-05-23T04:32:20.067Z,9.40
2019-05-23T04:34:49.800Z,9.40
2019-05-23T04:37:23.836Z,9.30
2019-05-23T04:39:53.549Z,9.40
2019-05-23T04:42:23.002Z,9.40
2019-05-23T04:44:54.960Z,9.50
2019-05-23T04:47:24.741Z,9.50
2019-05-23T04:49:54.826Z,9.60
2019-05-23T04:52:25.498Z,9.80
2019-05-23T04:54:55.210Z,10.00
2019-05-23T04:57:26.886Z,10.30
2019-05-23T04:59:56.322Z,10.50
2019-05-23T05:02:27.280Z,10.70
2019-05-23T05:04:57.904Z,10.80
2019-05-23T05:07:27.526Z,11.00
2019-05-23T05:10:02.040Z,11.20
2019-05-23T05:12:32.630Z,11.40
2019-05-23T05:15:02.063Z,11.50
2019-05-23T05:17:32.594Z,11.60
2019-05-23T05:20:02.475Z,11.80
2019-05-23T05:22:32.197Z,11.90
2019-05-23T05:25:04.499Z,12.10
2019-05-23T05:27:35.077Z,12.30
2019-05-23T05:30:05.757Z,12.50
2019-05-23T05:32:44.630Z,12.60
2019-05-23T05:35:07.973Z,12.80
2019-05-23T05:37:44.521Z,12.80
2019-05-23T05:40:15.430Z,13.00
2019-05-23T05:42:48.316Z,13.20
2019-05-23T05:45:18.482Z,13.50
2019-05-23T05:47:50.783Z,14.20
2019-05-23T05:50:24.932Z,15.10
2019-05-23T05:52:54.586Z,16.20
2019-05-23T05:55:24.423Z,17.60
2019-05-23T05:57:59.644Z,18.90
2019-05-23T06:00:55.086Z,20.00
2019-05-23T06:06:24.446Z,22.50
2019-05-23T06:08:57.305Z,22.90
2019-05-23T06:11:33.439Z,23.60
2019-05-23T06:14:09.271Z,23.70
2019-05-23T06:16:44.030Z,24.00
2019-05-23T06:19:20.157Z,24.70
2019-05-23T06:21:58.887Z,25.50
2019-05-23T06:24:46.932Z,25.90
2019-05-23T06:27:15.143Z,26.20
2019-05-23T06:29:52.125Z,26.90
2019-05-23T06:32:29.353Z,27.70
2019-05-23T06:35:05.508Z,28.30
2019-05-23T06:37:37.592Z,28.90
2019-05-23T06:40:13.212Z,29.20
2019-05-23T06:42:50.731Z,28.60
2019-05-23T06:45:31.269Z,28.90
2019-05-23T06:48:06.830Z,29.50
2019-05-23T06:50:41.905Z,28.80
2019-05-23T06:53:12.640Z,28.60
2019-05-23T06:55:42.038Z,29.20
2019-05-23T06:58:11.937Z,29.00
2019-05-23T07:00:47.149Z,27.70
2019-05-23T07:03:17.100Z,28.00
2019-05-23T07:05:47.611Z,29.40
2019-05-23T07:08:20.586Z,30.40
2019-05-23T07:10:50.513Z,30.40
2019-05-23T07:13:20.702Z,28.80
2019-05-23T07:15:52.037Z,27.00
2019-05-23T07:18:21.514Z,27.10
2019-05-23T07:20:51.189Z,28.30
2019-05-23T07:23:21.006Z,28.70
2019-05-23T07:25:52.291Z,29.80
2019-05-23T07:28:21.703Z,30.80
2019-05-23T07:30:51.333Z,31.80
2019-05-23T07:33:21.108Z,31.50
2019-05-23T07:35:50.497Z,32.10
2019-05-23T07:38:27.939Z,32.90
2019-05-23T07:41:03.412Z,33.10
2019-05-23T07:43:32.908Z,33.50
2019-05-23T07:46:03.465Z,34.10
2019-05-23T07:48:33.357Z,34.40
2019-05-23T07:51:03.051Z,34.80
2019-05-23T07:53:50.371Z,35.20
2019-05-23T07:56:21.650Z,36.10
2019-05-23T07:58:58.273Z,36.10
2019-05-23T08:01:33.100Z,37.00
2019-05-23T08:04:19.785Z,37.60
2019-05-23T08:06:35.825Z,38.00
2019-05-23T08:09:15.604Z,38.60
2019-05-23T08:11:44.954Z,38.60
2019-05-23T08:14:15.470Z,37.00
2019-05-23T08:16:45.155Z,36.10
2019-05-23T08:19:19.233Z,36.60
2019-05-23T08:21:46.485Z,37.00
2019-05-23T08:24:18.291Z,37.90
2019-05-23T08:26:47.734Z,38.20
2019-05-23T08:29:26.670Z,38.10
2019-05-23T08:31:51.329Z,34.90
2019-05-23T08:34:37.822Z,31.90
2019-05-23T08:36:59.498Z,29.60
2019-05-23T08:39:30.519Z,27.90
2019-05-23T08:42:00.206Z,26.50
2019-05-23T08:44:34.479Z,25.30
2019-05-23T08:47:10.683Z,24.60
2019-05-23T08:49:40.405Z,24.90
2019-05-23T08:52:10.841Z,26.60
2019-05-23T08:54:41.269Z,26.90
2019-05-23T08:57:11.054Z,27.10
2019-05-23T08:59:41.482Z,29.60
2019-05-23T09:02:13.725Z,31.70
2019-05-23T09:05:02.206Z,31.90
2019-05-23T09:07:15.324Z,32.60
2019-05-23T09:09:45.730Z,34.90
2019-05-23T09:12:16.990Z,34.60
2019-05-23T09:14:46.371Z,34.90
2019-05-23T09:17:16.202Z,36.00
2019-05-23T09:19:45.742Z,36.90
2019-05-23T09:22:17.290Z,37.60
2019-05-23T09:24:48.659Z,38.30
2019-05-23T09:27:18.023Z,39.50
2019-05-23T09:29:47.665Z,39.40
2019-05-23T09:32:17.654Z,37.80
2019-05-23T09:34:47.314Z,35.30
2019-05-23T09:37:19.377Z,32.80
2019-05-23T09:39:50.501Z,32.50
2019-05-23T09:42:20.998Z,33.20
2019-05-23T09:44:50.394Z,33.70
2019-05-23T09:47:22.222Z,33.90
2019-05-23T09:49:55.078Z,34.30
2019-05-23T09:52:25.537Z,33.40
2019-05-23T09:54:55.773Z,33.80
2019-05-23T09:57:32.474Z,33.60
2019-05-23T10:00:01.613Z,33.60
2019-05-23T10:02:31.086Z,32.80
2019-05-23T10:05:00.682Z,31.90
2019-05-23T10:07:30.643Z,31.00
2019-05-23T10:10:00.544Z,29.60
2019-05-23T10:12:30.478Z,28.90
2019-05-23T10:15:00.749Z,28.10
2019-05-23T10:17:30.720Z,27.00
2019-05-23T10:20:14.670Z,26.20
2019-05-23T10:22:44.766Z,25.20
2019-05-23T10:25:17.966Z,24.80
2019-05-23T10:27:47.987Z,24.50
2019-05-23T10:30:19.333Z,24.00
2019-05-23T10:32:48.730Z,23.70
2019-05-23T10:35:21.744Z,23.30
2019-05-23T10:37:51.881Z,23.10
2019-05-23T10:40:22.801Z,22.70
2019-05-23T10:42:57.583Z,22.30
2019-05-23T10:45:28.585Z,22.00
2019-05-23T10:47:58.545Z,21.80
2019-05-23T10:50:43.525Z,21.60
2019-05-23T10:53:01.359Z,21.60
2019-05-23T10:55:31.317Z,21.60
2019-05-23T10:58:00.818Z,21.70
2019-05-23T11:00:30.406Z,21.70
2019-05-23T11:03:00.669Z,21.70
2019-05-23T11:05:35.297Z,21.70
2019-05-23T11:08:06.407Z,21.80
2019-05-23T11:10:36.747Z,21.70
2019-05-23T11:13:07.068Z,21.30
2019-05-23T11:15:36.770Z,21.00
2019-05-23T11:18:07.983Z,21.00
2019-05-23T11:20:37.401Z,20.80
2019-05-23T11:23:07.284Z,20.80
2019-05-23T11:25:41.545Z,20.90
2019-05-23T11:28:15.561Z,20.80
2019-05-23T11:30:51.937Z,20.80
2019-05-23T11:33:24.188Z,20.60
2019-05-23T11:35:59.213Z,20.50
2019-05-23T11:38:32.978Z,20.60
2019-05-23T11:41:04.061Z,20.80
2019-05-23T11:43:33.454Z,20.80
2019-05-23T11:46:11.562Z,20.50
2019-05-23T11:48:42.637Z,20.70
2019-05-23T11:51:12.041Z,20.70
2019-05-23T11:53:45.291Z,20.80
2019-05-23T11:56:19.905Z,20.60
2019-05-23T11:58:49.309Z,20.60
2019-05-23T12:01:23.409Z,20.70
2019-05-23T12:04:03.348Z,20.80
2019-05-23T12:06:55.568Z,20.80
2019-05-23T12:09:17.446Z,20.80
2019-05-23T12:11:49.337Z,20.70
2019-05-23T12:14:18.871Z,20.50
2019-05-23T12:16:49.356Z,20.50
2019-05-23T12:19:19.138Z,20.60
2019-05-23T12:21:49.777Z,20.80
2019-05-23T12:24:19.220Z,20.80
2019-05-23T12:26:49.872Z,20.90
2019-05-23T12:29:20.015Z,20.90
2019-05-23T12:31:50.599Z,20.60
2019-05-23T12:34:20.457Z,20.50
2019-05-23T12:36:52.506Z,20.30
2019-05-23T12:39:21.901Z,20.20
2019-05-23T12:41:52.206Z,20.40
2019-05-23T12:44:27.300Z,20.30
2019-05-23T12:46:59.299Z,20.40
2019-05-23T12:49:42.716Z,20.70
2019-05-23T12:52:13.187Z,20.80
2019-05-23T12:54:43.961Z,20.90
2019-05-23T12:57:14.760Z,20.90
2019-05-23T12:59:52.839Z,20.90
2019-05-23T13:02:25.428Z,20.80
2019-05-23T13:04:55.457Z,20.80
2019-05-23T13:07:35.547Z,20.70
2019-05-23T13:09:56.762Z,20.80
2019-05-23T13:12:27.026Z,20.90
2019-05-23T13:14:58.927Z,21.10
2019-05-23T13:17:28.481Z,21.30
2019-05-23T13:19:58.400Z,21.30
2019-05-23T13:22:29.655Z,21.30
2019-05-23T13:24:59.714Z,21.50
2019-05-23T13:27:31.352Z,21.70
2019-05-23T13:30:03.656Z,21.80
2019-05-23T13:32:33.309Z,21.50
2019-05-23T13:35:03.013Z,21.40
2019-05-23T13:37:32.856Z,21.40
2019-05-23T13:40:02.361Z,21.60
2019-05-23T13:42:35.164Z,21.60
2019-05-23T13:45:08.360Z,21.80
2019-05-23T13:47:41.331Z,21.50
2019-05-23T13:50:11.694Z,21.50
2019-05-23T13:52:45.635Z,21.50
2019-05-23T13:55:20.405Z,21.70
2019-05-23T13:57:51.600Z,21.70
2019-05-23T14:00:26.431Z,21.80
2019-05-23T14:02:55.774Z,21.80
2019-05-23T14:05:26.206Z,22.00
2019-05-23T14:08:10.757Z,21.90
2019-05-23T14:10:31.712Z,21.90
2019-05-23T14:13:05.867Z,21.80
2019-05-23T14:15:40.466Z,21.90
2019-05-23T14:18:13.731Z,22.10
2019-05-23T14:20:46.853Z,22.10
2019-05-23T14:23:27.709Z,21.90
2019-05-23T14:26:02.573Z,22.00
2019-05-23T14:28:35.151Z,22.10
2019-05-23T14:31:16.920Z,21.80
2019-05-23T14:34:01.606Z,21.90
2019-05-23T14:36:52.177Z,22.00
2019-05-23T14:39:38.060Z,22.00
2019-05-23T14:42:30.627Z,22.00
2019-05-23T14:45:00.119Z,22.00
2019-05-23T14:47:47.292Z,22.00
2019-05-23T14:50:55.266Z,22.00
2019-05-23T14:53:26.628Z,22.10
2019-05-23T14:55:57.124Z,22.10
2019-05-23T14:58:26.836Z,22.00
2019-05-23T15:00:56.981Z,21.90
2019-05-23T15:03:30.511Z,21.90
2019-05-23T15:06:01.878Z,21.90
2019-05-23T15:08:49.785Z,21.80
2019-05-23T15:11:02.540Z,21.80
2019-05-23T15:13:32.584Z,21.90
2019-05-23T15:16:02.016Z,22.00
2019-05-23T15:18:35.572Z,21.90
2019-05-23T15:21:05.143Z,22.00
2019-05-23T15:23:34.567Z,22.00
2019-05-23T15:26:21.106Z,21.90
2019-05-23T15:28:36.249Z,22.00
2019-05-23T15:31:10.654Z,22.10
2019-05-23T15:33:45.642Z,22.00
2019-05-23T15:36:17.430Z,21.80
2019-05-23T15:38:54.377Z,21.80
2019-05-23T15:41:24.573Z,21.50
2019-05-23T15:43:56.176Z,21.30
2019-05-23T15:46:26.685Z,21.20
2019-05-23T15:48:57.406Z,21.30
2019-05-23T15:51:33.606Z,21.30
2019-05-23T15:54:11.032Z,21.10
2019-05-23T15:57:17.691Z,21.10
2019-05-23T16:00:11.252Z,21.10
2019-05-23T16:02:47.607Z,21.10
2019-05-23T16:05:18.868Z,21.00
2019-05-23T16:07:48.259Z,20.90
2019-05-23T16:10:20.020Z,20.80
2019-05-23T16:12:49.624Z,20.80
2019-05-23T16:15:19.108Z,20.70
2019-05-23T16:17:49.826Z,20.60
2019-05-23T16:20:22.984Z,20.70
2019-05-23T16:22:52.537Z,20.80
2019-05-23T16:25:23.299Z,20.60
2019-05-23T16:27:53.481Z,20.60
2019-05-23T16:30:23.810Z,20.70
2019-05-23T16:32:58.611Z,20.60
2019-05-23T16:35:33.969Z,20.60
2019-05-23T16:38:04.041Z,20.60
2019-05-23T16:40:33.824Z,20.40
2019-05-23T16:43:04.157Z,20.40
2019-05-23T16:45:36.117Z,20.50
2019-05-23T16:48:06.010Z,20.50
2019-05-23T16:50:37.081Z,20.40
2019-05-23T16:53:06.603Z,20.40
2019-05-23T16:56:03.502Z,20.30
2019-05-23T16:58:54.905Z,20.30
2019-05-23T17:01:34.728Z,20.20
2019-05-23T17:04:22.341Z,20.10
2019-05-23T17:07:19.705Z,20.00
2019-05-23T17:10:08.598Z,19.90
2019-05-23T17:12:51.052Z,19.70
2019-05-23T17:15:48.090Z,19.50
2019-05-23T17:18:44.062Z,19.40
2019-05-23T17:21:23.837Z,19.30
2019-05-23T17:24:09.813Z,19.20
2019-05-23T17:26:48.389Z,19.10
2019-05-23T17:29:27.998Z,19.00
2019-05-23T17:31:58.066Z,18.90
2019-05-23T17:34:27.427Z,18.90
2019-05-23T17:36:56.809Z,18.80
2019-05-23T17:39:28.165Z,18.70
2019-05-23T17:42:03.888Z,18.70
2019-05-23T17:44:39.841Z,18.60
2019-05-23T17:47:09.216Z,18.50
2019-05-23T17:49:38.625Z,18.50
2019-05-23T17:52:09.449Z,18.50
2019-05-23T17:54:39.527Z,18.50
2019-05-23T17:57:09.766Z,18.50
2019-05-23T17:59:43.435Z,18.50
2019-05-23T18:02:13.168Z,18.40
2019-05-23T18:04:43.889Z,18.40
2019-05-23T18:07:14.586Z,18.40
2019-05-23T18:09:44.690Z,18.30
2019-05-23T18:12:20.496Z,18.30
2019-05-23T18:14:50.266Z,18.30
2019-05-23T18:17:20.213Z,18.30
2019-05-23T18:19:50.041Z,18.20
2019-05-23T18:22:21.767Z,18.20
2019-05-23T18:24:59.699Z,18.10
2019-05-23T18:27:36.062Z,18.10
2019-05-23T18:30:08.448Z,18.10
2019-05-23T18:32:37.981Z,18.10
2019-05-23T18:35:09.208Z,18.00
2019-05-23T18:37:38.852Z,18.00
2019-05-23T18:40:08.417Z,17.90
2019-05-23T18:42:38.391Z,17.80
2019-05-23T18:45:12.098Z,17.80
2019-05-23T18:47:42.791Z,17.80
2019-05-23T18:50:13.169Z,17.70
2019-05-23T18:52:43.489Z,17.70
2019-05-23T18:55:13.286Z,17.60
2019-05-23T18:57:43.668Z,17.50
2019-05-23T19:00:13.516Z,17.50
2019-05-23T19:02:43.333Z,17.40
2019-05-23T19:05:13.514Z,17.40
2019-05-23T19:07:43.962Z,17.30
2019-05-23T19:10:15.021Z,17.30
2019-05-23T19:12:44.609Z,17.20
2019-05-23T19:15:15.743Z,17.10
2019-05-23T19:17:45.170Z,17.00
2019-05-23T19:20:16.398Z,16.90
2019-05-23T19:22:47.660Z,16.90
2019-05-23T19:25:23.744Z,16.80
2019-05-23T19:27:53.714Z,16.80
2019-05-23T19:30:26.024Z,16.70
2019-05-23T19:32:59.773Z,16.60
2019-05-23T19:35:33.928Z,16.50
2019-05-23T19:38:05.077Z,16.40
2019-05-23T19:40:35.846Z,16.20
2019-05-23T19:43:06.712Z,16.00
2019-05-23T19:45:36.706Z,15.80
2019-05-23T19:48:07.261Z,15.70
2019-05-23T19:50:38.445Z,15.70
2019-05-23T19:53:08.960Z,15.70
2019-05-23T19:55:40.336Z,15.90
2019-05-23T19:58:12.370Z,15.50
2019-05-23T20:00:46.944Z,15.40
2019-05-23T20:03:28.716Z,15.30
2019-05-23T20:05:59.552Z,15.10
2019-05-23T20:08:33.987Z,15.10
2019-05-23T20:11:03.685Z,15.10
2019-05-23T20:13:36.545Z,15.10
2019-05-23T20:16:08.661Z,15.10
2019-05-23T20:18:39.788Z,15.10
2019-05-23T20:21:14.227Z,15.00
2019-05-23T20:23:44.445Z,14.90
2019-05-23T20:26:16.146Z,14.90
2019-05-23T20:28:46.821Z,14.90
2019-05-23T20:31:18.102Z,14.80
2019-05-23T20:33:47.981Z,14.80
2019-05-23T20:36:21.153Z,14.70
2019-05-23T20:38:51.831Z,14.60
2019-05-23T20:41:24.646Z,14.60
2019-05-23T20:43:57.739Z,14.60
2019-05-23T20:46:27.692Z,14.60
2019-05-23T20:48:57.333Z,14.50
2019-05-23T20:51:26.829Z,14.40
2019-05-23T20:53:56.920Z,14.40
2019-05-23T20:56:27.596Z,14.40
2019-05-23T20:58:58.033Z,14.30
2019-05-23T21:01:34.838Z,14.20
2019-05-23T21:04:06.070Z,14.20
2019-05-23T21:06:41.114Z,14.10
2019-05-23T21:09:15.966Z,14.10
2019-05-23T21:11:46.265Z,14.00
2019-05-23T21:14:19.013Z,14.00
2019-05-23T21:16:48.808Z,13.90
2019-05-23T21:19:21.383Z,13.90
2019-05-23T21:21:51.340Z,13.90
2019-05-23T21:24:20.954Z,13.80
2019-05-23T21:26:50.929Z,13.70
2019-05-23T21:29:21.834Z,13.70
2019-05-23T21:31:51.254Z,13.60
2019-05-23T21:34:22.300Z,13.50
2019-05-23T21:36:53.600Z,13.50
2019-05-23T21:39:23.483Z,13.40
2019-05-23T21:41:53.983Z,13.40
2019-05-23T21:44:30.880Z,13.30
2019-05-23T21:47:01.623Z,13.30
2019-05-23T21:49:51.227Z,13.20
2019-05-23T21:52:20.909Z,13.20
2019-05-23T21:54:50.334Z,13.10
2019-05-23T21:57:21.762Z,13.10
2019-05-23T21:59:51.543Z,13.00
2019-05-23T22:02:29.156Z,13.00
2019-05-23T22:05:12.248Z,12.90
2019-05-23T22:07:44.900Z,12.90
2019-05-23T22:10:15.024Z,12.80
2019-05-23T22:12:45.732Z,12.70
2019-05-23T22:15:19.905Z,12.70
2019-05-23T22:17:50.482Z,12.70
2019-05-23T22:20:23.574Z,12.70
2019-05-23T22:22:53.050Z,12.60
2019-05-23T22:25:35.392Z,12.60
2019-05-23T22:28:05.808Z,12.60
2019-05-23T22:30:36.563Z,12.50
2019-05-23T22:33:06.861Z,12.40
2019-05-23T22:35:36.989Z,12.40
2019-05-23T22:38:10.123Z,12.40
2019-05-23T22:40:40.483Z,12.30
2019-05-23T22:43:20.929Z,12.30
2019-05-23T22:45:47.095Z,12.30
2019-05-23T22:48:19.097Z,12.20
2019-05-23T22:50:50.071Z,12.20
2019-05-23T22:53:21.015Z,12.20
2019-05-23T22:55:52.156Z,12.20
2019-05-23T22:58:23.980Z,12.10
2019-05-23T23:00:53.680Z,12.00
2019-05-23T23:03:24.739Z,11.90
2019-05-23T23:05:54.188Z,11.90
2019-05-23T23:08:24.899Z,11.90
2019-05-23T23:10:55.447Z,11.80
2019-05-23T23:13:38.256Z,11.80
2019-05-23T23:15:58.987Z,11.70
2019-05-23T23:18:29.053Z,11.60
2019-05-23T23:21:00.209Z,11.60
2019-05-23T23:23:30.558Z,11.50
2019-05-23T23:26:00.564Z,11.50
2019-05-23T23:28:30.809Z,11.40
2019-05-23T23:31:01.124Z,11.30
2019-05-23T23:33:31.329Z,11.30
2019-05-23T23:36:00.704Z,11.30
2019-05-23T23:38:30.308Z,11.20
2019-05-23T23:40:59.784Z,11.20
2019-05-23T23:43:29.293Z,11.20
2019-05-23T23:46:16.591Z,11.20
2019-05-23T23:49:06.260Z,11.20
2019-05-23T23:51:53.093Z,11.20
2019-05-23T23:54:40.181Z,11.20
2019-05-23T23:57:28.384Z,11.10
